Time;durP1;ratioP1;P1;durP2;ratioP2;P2;SDS_P1;SDS_P2;PMS_P1;PMS_P2;Temp;Humidity;BMP_temperature;BMP_pressure;BME280_temperature;BME280_humidity;BME280_pressure;Samples;Min_cycle;Max_cycle;Signal;HPM_P1;HPM_P2
2022/06/14 00:03:05;;;;;;;2.47;0.65;;;;;;;11.08;69.98;101119.91;6110034;23;20068;-73
2022/06/14 00:05:31;;;;;;;1.00;0.75;;;;;;;11.00;70.08;101113.78;6106777;23;20432;-73
2022/06/14 00:07:57;;;;;;;0.80;0.75;;;;;;;11.00;70.04;101119.28;6134650;23;20065;-72
2022/06/14 00:10:28;;;;;;;0.88;0.60;;;;;;;11.00;70.35;101122.00;6083219;23;20013;-74
2022/06/14 00:12:54;;;;;;;0.73;0.63;;;;;;;11.03;69.79;101117.13;6133520;23;20037;-72
2022/06/14 00:15:20;;;;;;;2.00;0.70;;;;;;;10.97;69.73;101108.81;6132747;23;20010;-72
2022/06/14 00:17:46;;;;;;;0.75;0.63;;;;;;;10.96;69.86;101115.38;6107627;23;20086;-73
2022/06/14 00:20:12;;;;;;;1.33;0.80;;;;;;;10.94;70.33;101114.81;6132717;23;20006;-73
2022/06/14 00:22:38;;;;;;;0.80;0.50;;;;;;;10.93;70.05;101110.41;6130616;23;20334;-72
2022/06/14 00:25:04;;;;;;;1.30;0.50;;;;;;;10.94;69.47;101119.47;6102560;23;20034;-73
2022/06/14 00:27:30;;;;;;;1.10;0.60;;;;;;;10.87;69.95;101108.69;6102976;23;20006;-73
2022/06/14 00:29:57;;;;;;;2.25;0.90;;;;;;;10.85;69.88;101110.00;6101341;23;20037;-73
2022/06/14 00:32:23;;;;;;;3.20;0.82;;;;;;;10.72;69.96;101094.75;6100752;23;20014;-75
2022/06/14 00:34:49;;;;;;;1.83;0.60;;;;;;;10.69;69.89;101106.22;6079171;23;20009;-76
2022/06/14 00:37:18;;;;;;;2.72;0.68;;;;;;;10.64;70.18;101107.81;6080766;23;20362;-73
2022/06/14 00:39:44;;;;;;;1.42;0.60;;;;;;;10.65;70.01;101106.72;6105478;23;20009;-74
2022/06/14 00:42:19;;;;;;;1.92;0.80;;;;;;;10.60;69.93;101106.66;6080830;23;20065;-73
2022/06/14 00:45:06;;;;;;;0.73;0.60;;;;;;;10.56;69.82;101102.75;6105088;23;20002;-73
2022/06/14 00:48:02;;;;;;;1.48;0.73;;;;;;;10.50;70.29;101101.03;6104732;23;20002;-72
2022/06/14 00:51:06;;;;;;;1.38;0.70;;;;;;;10.44;70.64;101100.09;6091468;23;20010;-74
2022/06/14 00:53:49;;;;;;;3.30;0.90;;;;;;;10.33;70.63;101105.63;6087096;23;20073;-75
2022/06/14 00:56:21;;;;;;;2.30;0.90;;;;;;;10.19;71.22;101100.47;6104851;23;19998;-73
2022/06/14 00:59:21;;;;;;;3.00;1.23;;;;;;;10.14;71.40;101095.72;6076146;23;20002;-74
2022/06/14 01:01:49;;;;;;;1.08;0.70;;;;;;;10.06;71.47;101090.69;6046072;23;20007;-72
2022/06/14 01:04:23;;;;;;;0.70;0.70;;;;;;;10.09;71.47;101097.53;6100307;23;20387;-73
2022/06/14 01:06:55;;;;;;;2.22;0.80;;;;;;;10.04;71.04;101094.75;6076227;23;20115;-75
2022/06/14 01:09:46;;;;;;;1.77;0.50;;;;;;;9.88;71.40;101071.78;6104266;23;20002;-74
2022/06/14 01:12:40;;;;;;;1.80;0.70;;;;;;;9.86;71.29;101069.28;6079625;23;20010;-74
2022/06/14 01:15:20;;;;;;;0.93;0.50;;;;;;;9.87;71.34;101067.38;6104403;23;20002;-77
2022/06/14 01:17:53;;;;;;;1.05;0.60;;;;;;;9.72;71.38;101051.53;6106310;23;20325;-76
2022/06/14 01:20:48;;;;;;;4.30;0.90;;;;;;;9.70;71.81;101056.44;6077141;23;20006;-75
2022/06/14 01:23:16;;;;;;;2.42;0.85;;;;;;;9.70;71.87;101056.44;6102028;23;20007;-76
2022/06/14 01:25:56;;;;;;;3.50;1.33;;;;;;;9.74;72.53;101071.25;6114885;23;20025;-76
2022/06/14 01:28:26;;;;;;;1.48;0.65;;;;;;;9.62;72.48;101060.38;6134486;23;20041;-74
2022/06/14 01:30:53;;;;;;;2.67;1.00;;;;;;;9.65;72.28;101062.63;6106271;23;20056;-75
2022/06/14 01:33:28;;;;;;;1.58;0.70;;;;;;;9.51;73.03;101042.97;6106088;23;20013;-77
2022/06/14 01:36:00;;;;;;;0.95;0.70;;;;;;;9.61;72.29;101059.53;6132065;23;20006;-76
2022/06/14 01:38:26;;;;;;;1.88;0.80;;;;;;;9.59;72.78;101066.31;6131030;23;20009;-74
2022/06/14 01:41:04;;;;;;;1.38;0.60;;;;;;;9.52;72.71;101058.28;6134683;23;20025;-75
2022/06/14 01:43:51;;;;;;;1.58;1.05;;;;;;;9.53;73.11;101068.13;6136362;23;20008;-75
2022/06/14 01:46:19;;;;;;;1.30;0.63;;;;;;;9.52;73.27;101065.63;6135389;23;19998;-74
2022/06/14 01:52:10;;;;;;;;;;;;;;;9.45;72.52;101063.06;6137596;23;20076;-76
2022/06/14 01:54:57;;;;;;;1.83;1.10;;;;;;;9.21;73.38;101032.28;6110824;23;19931;-75
2022/06/14 01:57:46;;;;;;;5.10;1.20;;;;;;;9.29;73.65;101044.69;6134762;23;20027;-75
2022/06/14 02:00:22;;;;;;;1.88;1.23;;;;;;;9.29;74.08;101039.25;6109116;23;20338;-74
2022/06/14 02:04:37;;;;;;;2.78;0.80;;;;;;;9.29;73.45;101053.72;6109284;23;20077;-74
2022/06/14 02:05:52;;;;;;;2.13;1.00;;;;;;;9.22;74.12;101036.66;6133374;23;20010;-75
2022/06/14 02:08:24;;;;;;;1.58;0.85;;;;;;;9.13;74.12;101022.56;6135469;23;19998;-75
2022/06/14 02:11:03;;;;;;;1.92;1.10;;;;;;;9.14;74.10;101031.59;6108530;23;20006;-75
2022/06/14 02:14:01;;;;;;;3.20;1.10;;;;;;;9.19;74.17;101035.25;6134851;23;20002;-76
2022/06/14 02:16:33;;;;;;;4.53;1.50;;;;;;;9.02;75.42;101013.38;6109823;23;20089;-76
2022/06/14 02:19:06;;;;;;;1.50;1.00;;;;;;;9.14;74.76;101026.13;6133633;23;20064;-75
2022/06/14 02:21:41;;;;;;;7.93;1.60;;;;;;;9.10;76.16;101031.25;6135114;23;20029;-74
2022/06/14 02:24:28;;;;;;;4.93;1.55;;;;;;;9.06;75.92;101019.16;6110163;23;20005;-76
2022/06/14 02:26:57;;;;;;;5.20;1.48;;;;;;;9.05;76.63;101022.94;6135342;23;20014;-75
2022/06/14 02:29:29;;;;;;;4.00;1.48;;;;;;;8.96;76.77;101008.03;6107690;23;20009;-73
2022/06/14 02:31:57;;;;;;;3.25;1.20;;;;;;;8.85;76.28;101002.38;6131199;23;20002;-75
2022/06/14 02:34:45;;;;;;;1.13;0.77;;;;;;;8.93;76.48;101022.16;6107637;23;20037;-76
2022/06/14 02:37:28;;;;;;;1.70;0.80;;;;;;;8.85;76.30;101007.81;6107537;23;20010;-74
2022/06/14 02:39:59;;;;;;;1.42;1.08;;;;;;;8.87;76.43;101007.56;6134085;23;20002;-74
2022/06/14 02:42:41;;;;;;;3.78;1.58;;;;;;;8.77;76.53;100993.72;6106664;23;20005;-73
2022/06/14 02:45:21;;;;;;;7.35;1.35;;;;;;;8.72;77.04;100997.19;6130380;23;20005;-74
2022/06/14 02:47:57;;;;;;;3.90;1.23;;;;;;;8.84;77.05;101011.59;6106432;23;19994;-74
2022/06/14 02:50:29;;;;;;;3.35;1.30;;;;;;;8.82;77.02;101019.22;6133851;23;19998;-74
2022/06/14 02:53:24;;;;;;;2.65;0.90;;;;;;;8.85;76.96;101013.28;6107943;23;20009;-75
2022/06/14 02:55:55;;;;;;;0.85;0.77;;;;;;;8.85;76.35;101012.47;6095475;23;20065;-74
2022/06/14 02:58:25;;;;;;;3.97;1.10;;;;;;;8.83;76.99;101026.31;6135921;23;20022;-75
2022/06/14 03:01:16;;;;;;;2.45;1.30;;;;;;;8.83;76.66;101015.41;6134016;23;20006;-75
2022/06/14 03:04:11;;;;;;;2.10;1.00;;;;;;;8.80;76.93;101004.16;6107595;23;20072;-73
2022/06/14 03:06:43;;;;;;;2.75;1.38;;;;;;;8.77;76.87;101010.09;6108568;23;20004;-75
2022/06/14 03:09:19;;;;;;;2.22;1.10;;;;;;;8.75;76.99;101010.31;6134916;23;20105;-76
2022/06/14 03:11:53;;;;;;;1.55;0.70;;;;;;;8.76;77.11;101009.25;6135490;23;20426;-74
2022/06/14 03:15:15;;;;;;;1.25;0.85;;;;;;;8.78;76.49;101007.13;6135835;23;20006;-75
2022/06/14 03:17:55;;;;;;;1.20;0.57;;;;;;;8.80;77.21;101009.59;6074114;23;20107;-75
2022/06/14 03:20:23;;;;;;;1.40;0.80;;;;;;;8.80;77.34;101010.41;6129875;23;20130;-72
2022/06/14 03:23:44;;;;;;;1.15;0.70;;;;;;;8.72;76.53;100997.19;6110129;23;20009;-75
2022/06/14 03:26:23;;;;;;;2.15;0.82;;;;;;;8.75;76.77;100991.25;6021675;23;20022;-74
2022/06/14 03:29:04;;;;;;;0.73;0.73;;;;;;;8.77;76.16;101000.00;6134641;23;20012;-74
2022/06/14 03:31:36;;;;;;;1.23;0.93;;;;;;;8.79;76.96;101014.25;6109642;23;20464;-74
2022/06/14 03:34:18;;;;;;;5.28;1.25;;;;;;;8.79;77.35;101003.34;6107670;23;20069;-74
2022/06/14 03:36:44;;;;;;;3.60;1.30;;;;;;;8.77;77.45;101004.63;6134032;23;20033;-75
2022/06/14 03:39:20;;;;;;;1.50;1.40;;;;;;;8.70;77.58;100988.38;6135775;23;20425;-74
2022/06/14 03:41:49;;;;;;;2.65;1.10;;;;;;;8.81;77.58;100995.72;6109080;23;20038;-75
2022/06/14 03:44:16;;;;;;;4.05;1.20;;;;;;;8.81;77.93;101003.09;6108925;23;20025;-75
2022/06/14 03:46:48;;;;;;;2.47;1.20;;;;;;;8.76;77.19;100998.34;6134178;23;20002;-77
2022/06/14 03:49:21;;;;;;;5.95;1.60;;;;;;;8.74;77.43;101000.47;6136019;23;20014;-74
2022/06/14 03:52:00;;;;;;;3.58;1.48;;;;;;;8.69;78.04;100992.22;6134853;23;20012;-76
2022/06/14 03:54:46;;;;;;;3.80;1.55;;;;;;;8.70;78.04;100997.41;6135981;23;20092;-75
2022/06/14 03:57:45;;;;;;;2.50;1.45;;;;;;;8.65;77.46;100997.28;6109194;23;20002;-75
2022/06/14 04:00:39;;;;;;;4.28;1.33;;;;;;;8.65;77.64;100991.03;6133095;23;20005;-74
2022/06/14 04:03:39;;;;;;;6.07;1.77;;;;;;;8.61;78.52;100990.66;6112558;23;20005;-77
2022/06/14 04:06:18;;;;;;;2.83;1.30;;;;;;;8.65;78.64;101001.94;6111896;23;20009;-77
2022/06/14 04:08:55;;;;;;;4.30;1.40;;;;;;;8.58;78.17;100990.31;6136679;23;20017;-75
2022/06/14 04:11:48;;;;;;;3.22;1.38;;;;;;;8.61;78.45;101003.47;6135901;23;20020;-75
2022/06/14 04:14:31;;;;;;;2.85;1.30;;;;;;;8.61;77.70;101006.19;6102790;23;20005;-74
2022/06/14 04:17:00;;;;;;;3.20;1.25;;;;;;;8.61;78.08;101000.75;6130714;23;19998;-75
2022/06/14 04:19:42;;;;;;;2.47;1.27;;;;;;;8.59;77.91;100997.44;6133335;23;20010;-74
2022/06/14 04:22:40;;;;;;;4.60;1.50;;;;;;;8.62;78.85;101005.13;6108119;23;20006;-75
2022/06/14 04:25:27;;;;;;;4.18;1.40;;;;;;;8.62;78.00;101007.84;6108579;23;20016;-74
2022/06/14 04:28:25;;;;;;;3.22;1.50;;;;;;;8.62;79.27;101002.41;6130723;23;20033;-75
2022/06/14 04:31:13;;;;;;;5.15;1.30;;;;;;;8.63;78.19;101009.50;6050014;23;20020;-74
2022/06/14 04:34:34;;;;;;;3.45;1.50;;;;;;;8.64;78.54;101006.53;6133960;23;20448;-74
2022/06/14 04:37:14;;;;;;;5.40;1.63;;;;;;;8.68;78.58;101004.16;6128484;23;20058;-74
2022/06/14 04:39:52;;;;;;;5.38;1.77;;;;;;;8.74;79.14;101003.22;6132857;23;20078;-75
2022/06/14 04:42:37;;;;;;;2.35;1.10;;;;;;;8.78;78.85;101001.66;6108552;23;20096;-77
2022/06/14 04:45:15;;;;;;;1.67;1.20;;;;;;;8.84;78.31;100997.16;6136703;23;20109;-76
2022/06/14 04:47:49;;;;;;;3.00;1.38;;;;;;;8.86;78.59;100987.66;6136817;23;20009;-77
2022/06/14 04:50:17;;;;;;;3.50;1.07;;;;;;;9.01;78.08;101005.38;6136171;23;20029;-76
2022/06/14 04:52:49;;;;;;;5.10;2.08;;;;;;;9.04;78.64;101000.31;6133309;23;20327;-76
2022/06/14 04:55:33;;;;;;;5.05;1.50;;;;;;;9.15;78.29;100998.59;6133431;23;20119;-75
2022/06/14 04:58:23;;;;;;;3.80;1.05;;;;;;;9.24;77.85;100999.03;6133707;23;20029;-76
2022/06/14 05:00:57;;;;;;;4.65;1.50;;;;;;;9.30;77.79;101005.44;6117760;23;20002;-73
2022/06/14 05:03:50;;;;;;;2.33;1.07;;;;;;;9.39;77.77;100996.63;6133649;23;20081;-73
2022/06/14 05:06:25;;;;;;;1.20;0.80;;;;;;;9.48;76.94;101002.50;6133576;23;20005;-75
2022/06/14 05:09:05;;;;;;;3.40;0.80;;;;;;;9.55;77.55;101000.47;6107827;23;20013;-76
2022/06/14 05:11:42;;;;;;;1.20;0.82;;;;;;;9.57;76.36;101003.75;6134540;23;20002;-76
2022/06/14 05:15:00;;;;;;;1.33;0.93;;;;;;;9.72;76.20;101005.13;6107857;23;20299;-75
2022/06/14 05:17:30;;;;;;;1.38;0.88;;;;;;;9.71;76.06;100992.53;5987035;24;20008;-75
2022/06/14 05:20:03;;;;;;;1.85;0.90;;;;;;;9.87;75.37;101002.66;6124929;23;20475;-75
2022/06/14 05:22:44;;;;;;;1.65;1.00;;;;;;;9.92;75.08;100999.19;6108110;23;20006;-75
2022/06/14 05:25:13;;;;;;;1.52;1.00;;;;;;;10.07;74.91;101001.34;6108989;23;20026;-74
2022/06/14 05:27:50;;;;;;;3.78;1.20;;;;;;;10.16;74.76;101005.28;6107234;23;20009;-74
2022/06/14 05:30:42;;;;;;;2.33;1.00;;;;;;;10.26;74.80;101005.44;6134448;23;20002;-74
2022/06/14 05:33:44;;;;;;;1.88;0.90;;;;;;;10.31;74.23;100989.16;6109719;23;20433;-74
2022/06/14 05:36:51;;;;;;;1.85;0.93;;;;;;;10.46;74.53;101004.16;6108800;23;20013;-74
2022/06/14 05:39:31;;;;;;;2.15;1.10;;;;;;;10.53;74.38;101003.97;6105585;23;20037;-73
2022/06/14 05:42:14;;;;;;;3.67;1.48;;;;;;;10.53;74.70;101003.97;6132455;23;20037;-73
2022/06/14 05:44:49;;;;;;;3.50;1.60;;;;;;;10.58;74.54;101002.13;6133503;23;20052;-73
2022/06/14 05:47:24;;;;;;;3.60;1.17;;;;;;;10.62;74.54;100997.81;6132341;23;20002;-74
2022/06/14 05:49:54;;;;;;;2.28;1.20;;;;;;;10.72;74.75;101001.75;6131499;23;20370;-74
2022/06/14 05:52:31;;;;;;;3.28;1.20;;;;;;;10.76;74.68;101002.91;6105386;23;20341;-73
2022/06/14 05:55:21;;;;;;;5.97;1.90;;;;;;;10.66;75.10;100987.22;6106937;23;20453;-74
2022/06/14 05:57:56;;;;;;;3.95;1.70;;;;;;;10.71;75.46;100998.22;6134591;23;20012;-77
2022/06/14 06:00:29;;;;;;;6.03;2.22;;;;;;;10.76;75.70;101003.75;6135410;23;20001;-75
2022/06/14 06:03:00;;;;;;;3.08;1.48;;;;;;;10.83;75.08;101004.41;6134304;23;20012;-75
2022/06/14 06:05:53;;;;;;;2.50;1.30;;;;;;;10.98;75.15;101000.19;6133067;23;20114;-75
2022/06/14 06:08:23;;;;;;;2.40;1.30;;;;;;;11.17;74.55;101004.25;6134595;23;20010;-75
2022/06/14 06:10:53;;;;;;;1.95;1.00;;;;;;;11.29;73.88;100990.44;6134344;23;20017;-76
2022/06/14 06:14:02;;;;;;;2.50;1.02;;;;;;;11.64;73.65;101002.84;6134116;23;20045;-76
2022/06/14 06:17:02;;;;;;;1.65;1.10;;;;;;;11.87;72.85;101000.84;6133430;23;20002;-76
2022/06/14 06:19:54;;;;;;;2.10;1.10;;;;;;;11.99;72.07;100979.63;6106788;23;20010;-76
2022/06/14 06:22:42;;;;;;;1.25;0.80;;;;;;;12.35;71.47;101006.47;6043151;23;20037;-74
2022/06/14 06:25:22;;;;;;;1.20;0.93;;;;;;;12.44;71.15;100990.34;6132131;23;20864;-75
2022/06/14 06:27:52;;;;;;;2.05;0.73;;;;;;;12.69;70.06;101006.16;6132912;23;20456;-77
2022/06/14 06:30:25;;;;;;;2.33;1.17;;;;;;;12.93;69.73;101001.03;6132460;23;20012;-74
2022/06/14 06:32:52;;;;;;;3.28;1.00;;;;;;;13.08;68.70;101003.84;6133280;23;20005;-75
2022/06/14 06:35:18;;;;;;;1.42;0.88;;;;;;;13.13;68.25;101002.19;6133062;23;20014;-74
2022/06/14 06:37:50;;;;;;;2.08;0.70;;;;;;;13.25;67.93;100997.31;6132721;23;20006;-76
2022/06/14 06:40:29;;;;;;;1.80;1.02;;;;;;;13.35;67.91;100999.31;6133115;23;20299;-74
2022/06/14 06:43:03;;;;;;;2.13;1.20;;;;;;;13.51;68.02;101005.66;6102352;23;20084;-77
2022/06/14 06:45:41;;;;;;;2.92;1.10;;;;;;;13.46;67.44;100997.41;6101773;23;20013;-77
2022/06/14 06:48:35;;;;;;;2.40;1.20;;;;;;;13.59;67.52;100996.88;6102501;23;20096;-80
2022/06/14 06:51:09;;;;;;;0.88;0.73;;;;;;;13.72;66.60;101001.03;6135599;23;20041;-81
2022/06/14 06:53:56;;;;;;;1.67;0.85;;;;;;;13.73;66.31;100994.44;6104327;23;20037;-78
2022/06/14 06:56:40;;;;;;;3.80;1.30;;;;;;;13.82;65.36;101005.72;6131192;23;20479;-79
2022/06/14 06:59:44;;;;;;;2.28;1.10;;;;;;;13.94;65.58;101025.50;6109371;23;20014;-79
2022/06/14 07:02:41;;;;;;;3.08;1.20;;;;;;;13.96;64.89;100995.81;6112575;23;20009;-80
2022/06/14 07:05:14;;;;;;;0.98;0.80;;;;;;;14.16;64.96;101013.41;6135019;23;20006;-74
2022/06/14 07:07:49;;;;;;;3.50;1.15;;;;;;;14.19;64.34;101007.34;6080650;23;20034;-76
2022/06/14 07:10:23;;;;;;;2.53;0.93;;;;;;;14.34;64.15;101012.84;6128749;23;20033;-77
2022/06/14 07:13:10;;;;;;;2.53;1.33;;;;;;;14.51;63.94;101018.03;6101242;23;20037;-75
2022/06/14 07:15:41;;;;;;;5.93;1.52;;;;;;;14.60;63.12;101021.88;6128751;23;20036;-75
2022/06/14 07:18:18;;;;;;;1.90;1.10;;;;;;;14.56;63.54;100997.94;6101561;23;20002;-74
2022/06/14 07:20:49;;;;;;;1.30;1.10;;;;;;;14.59;63.68;101000.16;6127958;23;20088;-79
2022/06/14 07:23:17;;;;;;;2.28;0.98;;;;;;;14.73;62.76;101009.47;6127437;23;20013;-76
2022/06/14 07:25:55;;;;;;;1.02;0.77;;;;;;;14.76;63.84;101017.19;6126003;23;20029;-75
2022/06/14 07:28:50;;;;;;;2.90;1.00;;;;;;;14.84;63.58;101013.84;6101465;23;20096;-76
2022/06/14 07:31:28;;;;;;;2.22;1.38;;;;;;;14.94;63.14;101017.69;6102235;23;20006;-76
2022/06/14 07:33:55;;;;;;;2.97;1.10;;;;;;;15.03;63.50;101023.44;6130568;23;20017;-75
2022/06/14 07:36:33;;;;;;;2.92;1.40;;;;;;;14.94;63.04;101003.94;6132878;23;20030;-75
2022/06/14 07:39:13;;;;;;;4.22;1.50;;;;;;;14.99;63.40;101006.66;6103589;23;20016;-75
2022/06/14 07:41:46;;;;;;;3.05;1.42;;;;;;;15.08;63.17;100993.94;6103164;23;20006;-74
2022/06/14 07:44:36;;;;;;;3.75;1.35;;;;;;;15.32;63.20;101012.56;6132458;23;20013;-75
2022/06/14 07:47:46;;;;;;;3.90;1.70;;;;;;;15.33;62.81;101011.44;6097449;23;20010;-76
2022/06/14 07:50:37;;;;;;;3.05;1.20;;;;;;;15.28;62.79;100997.72;6091553;23;20048;-74
2022/06/14 07:53:34;;;;;;;2.75;1.10;;;;;;;15.14;63.27;100992.81;6103772;23;20001;-76
2022/06/14 07:56:06;;;;;;;3.97;1.30;;;;;;;15.07;64.00;100986.78;6129955;23;20002;-75
2022/06/14 07:58:46;;;;;;;4.50;1.67;;;;;;;15.34;63.34;100996.56;6134011;23;20041;-75
2022/06/14 08:01:28;;;;;;;2.22;1.00;;;;;;;15.56;62.81;100989.81;6105764;23;20093;-75
2022/06/14 08:04:26;;;;;;;1.80;1.00;;;;;;;15.77;62.79;100999.59;6106290;23;20006;-75
2022/06/14 08:07:04;;;;;;;2.30;1.00;;;;;;;15.80;61.79;100979.75;6116112;23;20017;-73
2022/06/14 08:09:59;;;;;;;4.55;1.27;;;;;;;16.03;61.17;100988.38;6107392;23;20040;-75
2022/06/14 08:12:47;;;;;;;3.67;1.40;;;;;;;16.12;61.14;100986.66;6086694;23;20009;-75
2022/06/14 08:15:18;;;;;;;2.35;1.20;;;;;;;16.21;60.29;100973.88;6133585;23;20009;-75
2022/06/14 08:18:02;;;;;;;3.47;1.10;;;;;;;16.24;60.53;100958.69;6130161;23;20021;-76
2022/06/14 08:20:46;;;;;;;3.08;1.40;;;;;;;16.49;60.31;100971.38;6130623;23;20012;-76
2022/06/14 08:23:34;;;;;;;3.25;1.35;;;;;;;16.60;59.62;100977.59;6106716;23;20006;-75
2022/06/14 08:26:39;;;;;;;3.47;1.50;;;;;;;16.72;58.86;100968.94;6115334;23;20029;-74
2022/06/14 08:29:17;;;;;;;2.70;1.10;;;;;;;16.83;58.54;100962.16;6059085;23;20014;-75
2022/06/14 08:32:04;;;;;;;2.00;1.13;;;;;;;17.05;58.52;100963.56;6107815;23;20009;-75
2022/06/14 08:34:49;;;;;;;4.10;1.15;;;;;;;17.15;57.20;100971.72;6133993;23;20439;-76
2022/06/14 08:37:34;;;;;;;2.08;1.10;;;;;;;17.17;56.12;100947.41;6106850;23;20080;-76
2022/06/14 08:40:27;;;;;;;2.13;1.17;;;;;;;17.23;54.66;100956.41;6131024;23;20001;-76
2022/06/14 08:43:12;;;;;;;2.75;1.10;;;;;;;17.20;54.99;100946.81;6104554;23;20009;-76
2022/06/14 08:46:03;;;;;;;2.45;1.10;;;;;;;17.31;54.24;100952.19;6106264;23;20072;-76
2022/06/14 08:48:41;;;;;;;4.75;1.27;;;;;;;17.16;52.59;100940.22;6100211;23;20414;-75
2022/06/14 08:51:28;;;;;;;4.13;1.33;;;;;;;17.24;52.10;100947.84;6129264;23;20025;-75
2022/06/14 08:53:53;;;;;;;6.00;1.40;;;;;;;17.23;52.07;100946.19;6104863;23;20013;-75
2022/06/14 08:56:24;;;;;;;3.72;1.30;;;;;;;17.41;52.67;100952.03;6128315;23;20033;-76
2022/06/14 08:59:33;;;;;;;2.85;1.73;;;;;;;17.52;52.43;100953.53;6105128;23;20048;-76
2022/06/14 09:02:29;;;;;;;3.97;1.67;;;;;;;17.53;53.04;100926.69;6105976;23;20016;-77
2022/06/14 09:05:11;;;;;;;1.90;1.20;;;;;;;17.85;52.31;100931.41;6132227;23;20013;-75
2022/06/14 09:08:10;;;;;;;5.63;1.40;;;;;;;17.95;50.91;100922.97;6105696;23;20005;-77
2022/06/14 09:11:06;;;;;;;2.67;0.93;;;;;;;18.28;50.00;100935.91;6132360;23;20044;-76
2022/06/14 09:13:37;;;;;;;4.50;1.00;;;;;;;18.47;49.64;100938.59;6107134;23;20005;-75
2022/06/14 09:16:15;;;;;;;1.80;1.13;;;;;;;18.56;48.56;100947.03;6109010;23;20398;-77
2022/06/14 09:18:56;;;;;;;2.47;1.08;;;;;;;18.53;49.10;100920.78;6106421;23;20010;-75
2022/06/14 09:21:38;;;;;;;3.10;1.15;;;;;;;18.67;47.65;100927.16;6103458;23;20016;-75
2022/06/14 09:24:28;;;;;;;1.52;0.90;;;;;;;18.80;46.10;100935.75;6101848;23;20010;-74
2022/06/14 09:27:31;;;;;;;1.55;0.80;;;;;;;18.60;46.10;100929.50;6103610;23;20038;-77
2022/06/14 09:30:25;;;;;;;3.05;0.55;;;;;;;18.88;46.88;100937.81;6129058;23;20009;-75
2022/06/14 09:33:12;;;;;;;2.70;1.17;;;;;;;18.93;45.89;100923.84;6124931;23;20077;-75
2022/06/14 09:35:50;;;;;;;2.13;1.13;;;;;;;19.06;45.67;100932.47;6125810;23;20046;-73
2022/06/14 09:38:24;;;;;;;4.28;1.25;;;;;;;19.28;45.18;100935.25;6100038;23;20009;-75
2022/06/14 09:41:14;;;;;;;1.88;0.90;;;;;;;19.41;45.90;100935.56;6132565;23;20009;-76
2022/06/14 09:43:59;;;;;;;2.50;0.90;;;;;;;19.70;45.28;100935.13;6133511;23;20009;-76
2022/06/14 09:46:33;;;;;;;;;;;;;;;20.02;45.13;100931.28;6106441;23;20005;-77
2022/06/14 09:49:31;;;;;;;2.97;0.80;;;;;;;20.36;44.81;100924.25;6131306;23;19979;-78
2022/06/14 09:52:28;;;;;;;1.55;0.90;;;;;;;20.67;43.88;100933.69;6101735;23;20008;-75
2022/06/14 09:55:19;;;;;;;1.90;1.00;;;;;;;20.75;42.63;100919.84;6103271;23;20016;-77
2022/06/14 09:57:59;;;;;;;2.80;1.40;;;;;;;20.85;42.74;100929.84;6105493;23;20013;-78
2022/06/14 10:00:35;;;;;;;0.60;0.60;;;;;;;20.89;43.01;100921.66;6107627;23;20010;-76
2022/06/14 10:03:11;;;;;;;0.95;0.80;;;;;;;21.24;42.96;100913.34;6109063;23;20065;-77
2022/06/14 10:06:21;;;;;;;4.80;1.83;;;;;;;21.34;40.70;100924.16;6108127;23;20010;-77
2022/06/14 10:08:54;;;;;;;1.48;0.80;;;;;;;22.44;39.58;100926.63;5984893;23;20091;-76
2022/06/14 10:11:46;;;;;;;1.55;0.77;;;;;;;25.28;35.52;100929.53;6115293;23;20010;-76
2022/06/14 10:14:36;;;;;;;2.05;0.88;;;;;;;28.35;30.97;100932.78;6102704;23;20033;-76
2022/06/14 10:17:30;;;;;;;1.08;0.63;;;;;;;32.31;25.50;100946.09;6102581;23;20006;-77
2022/06/14 10:20:04;;;;;;;3.85;1.13;;;;;;;34.70;21.95;100943.88;6119320;23;20488;-76
2022/06/14 10:22:43;;;;;;;1.38;0.80;;;;;;;37.08;20.70;100949.03;6130066;23;20006;-76
2022/06/14 10:25:32;;;;;;;;;;;;;;;;;;;;;
2022/06/14 10:28:26;;;;;;;1.95;0.98;;;;;;;40.33;15.47;100942.16;6097888;23;20093;-76
2022/06/14 10:31:23;;;;;;;3.33;1.53;;;;;;;40.62;14.13;100924.00;6073898;23;20018;-75
2022/06/14 10:34:17;;;;;;;5.20;1.02;;;;;;;41.31;14.12;100928.84;6101205;23;20695;-77
2022/06/14 10:37:10;;;;;;;3.10;1.10;;;;;;;41.48;13.69;100920.81;6034214;23;20429;-76
2022/06/14 10:40:10;;;;;;;1.65;0.90;;;;;;;41.65;14.06;100920.59;6100675;23;20037;-76
2022/06/14 10:43:10;;;;;;;;;;;;;;;;;;;;;
2022/06/14 10:45:43;;;;;;;2.40;0.85;;;;;;;43.75;12.71;100904.38;6100404;23;20029;-76
2022/06/14 10:48:22;;;;;;;1.10;0.85;;;;;;;43.77;13.36;100907.59;6098392;23;20038;-76
2022/06/14 10:51:12;;;;;;;2.75;0.82;;;;;;;44.13;12.69;100897.13;6073907;23;20002;-77
2022/06/14 10:53:44;;;;;;;1.42;0.82;;;;;;;45.12;11.50;100891.56;6098157;23;20074;-75
2022/06/14 10:56:28;;;;;;;1.10;0.63;;;;;;;45.99;11.04;100890.34;6075707;23;20057;-78
2022/06/14 10:58:53;;;;;;;1.02;0.70;;;;;;;45.99;10.87;100893.22;6101887;23;20002;-77
2022/06/14 11:01:30;;;;;;;1.88;1.00;;;;;;;45.35;10.77;100886.19;6101833;23;20494;-77
2022/06/14 11:04:24;;;;;;;2.03;0.93;;;;;;;44.33;9.86;100879.25;6102601;23;20026;-77
2022/06/14 11:07:25;;;;;;;4.30;0.82;;;;;;;45.26;11.03;100885.00;6101176;23;20088;-77
2022/06/14 11:10:09;;;;;;;0.75;0.52;;;;;;;47.30;9.24;100893.44;6096390;23;20091;-77
2022/06/14 11:12:51;;;;;;;1.80;0.77;;;;;;;46.08;10.11;100854.75;6077935;23;19998;-76
2022/06/14 11:15:20;;;;;;;1.83;0.70;;;;;;;47.86;10.04;100875.69;6079090;23;20025;-76
2022/06/14 11:18:31;;;;;;;1.30;0.73;;;;;;;48.53;8.35;100862.81;6102924;23;20048;-77
2022/06/14 11:21:10;;;;;;;1.80;0.93;;;;;;;48.26;8.97;100863.50;6028063;23;20110;-76
2022/06/14 11:23:56;;;;;;;3.25;1.00;;;;;;;48.60;8.21;100855.69;6104060;23;20021;-76
2022/06/14 11:26:35;;;;;;;1.95;0.82;;;;;;;48.69;8.42;100861.25;6111587;23;20014;-77
2022/06/14 11:29:23;;;;;;;1.27;0.70;;;;;;;48.03;8.81;100826.50;6084943;23;20018;-76
2022/06/14 11:32:31;;;;;;;1.20;0.90;;;;;;;48.03;7.54;100855.47;6118304;23;20056;-76
2022/06/14 11:35:17;;;;;;;3.35;1.25;;;;;;;47.68;8.22;100842.13;6064710;23;20416;-75
2022/06/14 11:38:05;;;;;;;1.65;0.70;;;;;;;49.55;8.41;100828.06;6103722;23;20366;-75
2022/06/14 11:40:39;;;;;;;6.35;1.00;;;;;;;51.09;6.85;100843.34;6093206;23;20011;-75
2022/06/14 11:43:36;;;;;;;2.97;1.10;;;;;;;50.84;6.91;100832.97;6116853;23;20009;-75
2022/06/14 11:46:44;;;;;;;;;;;;;;;;;;;;;
2022/06/14 11:49:35;;;;;;;2.13;0.90;;;;;;;50.77;6.29;100817.66;6028432;23;20100;-75
2022/06/14 11:52:32;;;;;;;1.75;0.65;;;;;;;49.67;6.99;100817.19;6079666;23;20025;-74
2022/06/14 11:55:11;;;;;;;1.05;0.80;;;;;;;50.38;6.26;100827.44;6102459;23;20132;-76
2022/06/14 11:58:07;;;;;;;1.17;0.80;;;;;;;49.41;6.95;100806.66;6104135;23;20075;-76
2022/06/14 12:00:39;;;;;;;1.85;0.80;;;;;;;49.23;6.93;100813.00;6101316;23;20029;-77
2022/06/14 12:03:41;;;;;;;1.23;0.80;;;;;;;48.96;7.35;100812.50;6104581;23;20012;-77
2022/06/14 12:13:37;;;;;;;1.08;0.73;;;;;;;50.42;6.21;100810.50;6106138;23;20040;-74
2022/06/14 12:16:35;;;;;;;0.93;0.57;;;;;;;51.08;5.89;100800.22;6098234;23;19998;-75
2022/06/14 12:19:16;;;;;;;1.77;0.70;;;;;;;52.12;5.66;100805.97;6104192;23;20006;-74
2022/06/14 12:21:57;;;;;;;2.60;0.90;;;;;;;53.30;4.74;100808.28;6078114;23;20338;-74
2022/06/14 12:27:19;;;;;;;0.63;0.57;;;;;;;54.78;5.34;100791.28;6125325;23;20049;-75
2022/06/14 12:30:01;;;;;;;2.22;0.93;;;;;;;55.07;3.63;100782.53;6108120;23;20425;-74
2022/06/14 12:32:35;;;;;;;1.88;0.82;;;;;;;53.37;4.14;100777.66;6109806;23;20005;-74
2022/06/14 12:35:07;;;;;;;1.80;0.68;;;;;;;51.04;5.73;100779.38;6133153;23;20085;-76
2022/06/14 12:37:35;;;;;;;1.00;0.50;;;;;;;51.70;6.01;100778.41;6108837;23;19994;-74
2022/06/14 12:40:08;;;;;;;2.92;0.70;;;;;;;53.68;4.58;100789.78;6107768;23;20305;-75
2022/06/14 12:43:05;;;;;;;4.20;1.10;;;;;;;54.61;4.49;100779.97;6135870;23;20080;-76
2022/06/14 12:45:44;;;;;;;2.58;1.00;;;;;;;52.89;4.15;100783.28;6132894;23;20029;-75
2022/06/14 13:05:17;;;;;;;2.85;1.02;;;;;;;52.05;4.86;100774.53;6129408;23;20012;-73
2022/06/14 13:08:20;;;;;;;2.05;1.08;;;;;;;50.74;5.64;100778.03;6104365;23;20001;-73
2022/06/14 13:11:04;;;;;;;2.95;1.02;;;;;;;49.30;6.63;100759.44;6130050;23;20333;-73
2022/06/14 13:13:55;;;;;;;3.55;1.00;;;;;;;49.41;6.56;100763.09;6130728;23;20021;-75
2022/06/14 13:16:47;;;;;;;3.33;0.90;;;;;;;49.52;6.82;100750.66;6129003;23;20005;-74